createdAt,value
2018-07-01T00:00:18.766Z,0.00
2018-07-01T00:01:18.692Z,0.00
2018-07-01T00:02:18.797Z,0.00
2018-07-01T00:03:18.715Z,0.00
2018-07-01T00:04:18.720Z,0.00
2018-07-01T00:05:18.737Z,0.00
2018-07-01T00:06:18.757Z,0.00
2018-07-01T00:07:18.766Z,0.00
2018-07-01T00:08:18.877Z,0.00
2018-07-01T00:09:18.772Z,0.00
2018-07-01T00:10:18.846Z,0.00
2018-07-01T00:11:18.828Z,0.00
2018-07-01T00:12:18.833Z,0.00
2018-07-01T00:13:18.953Z,0.00
2018-07-01T00:14:18.839Z,0.00
2018-07-01T00:15:18.913Z,0.00
2018-07-01T00:16:18.882Z,0.00
2018-07-01T00:17:18.905Z,0.00
2018-07-01T00:18:19.058Z,0.00
2018-07-01T00:19:18.934Z,0.00
2018-07-01T00:20:18.920Z,0.00
2018-07-01T00:21:18.965Z,0.00
2018-07-01T00:22:18.967Z,0.00
2018-07-01T00:23:19.042Z,0.00
2018-07-01T00:24:19.000Z,0.00
2018-07-01T00:25:19.006Z,0.00
2018-07-01T00:26:19.022Z,0.00
2018-07-01T00:27:19.033Z,0.00
2018-07-01T00:28:19.188Z,0.00
2018-07-01T00:29:19.059Z,0.00
2018-07-01T00:30:19.116Z,0.00
2018-07-01T00:31:19.103Z,0.00
2018-07-01T00:32:19.109Z,0.00
2018-07-01T00:33:19.264Z,0.00
2018-07-01T00:34:19.129Z,0.00
2018-07-01T00:35:19.136Z,0.00
2018-07-01T00:36:19.205Z,0.00
2018-07-01T00:37:19.175Z,0.00
2018-07-01T00:38:19.323Z,0.00
2018-07-01T00:39:19.175Z,0.00
2018-07-01T00:40:19.203Z,0.00
2018-07-01T00:41:19.214Z,0.00
2018-07-01T00:42:19.217Z,0.00
2018-07-01T00:43:19.401Z,0.00
2018-07-01T00:44:19.255Z,0.00
2018-07-01T00:45:19.262Z,0.00
2018-07-01T00:46:19.276Z,0.00
2018-07-01T00:47:19.283Z,0.00
2018-07-01T00:48:19.444Z,0.00
2018-07-01T00:49:19.342Z,0.00
2018-07-01T00:50:19.341Z,0.00
2018-07-01T00:51:19.353Z,0.00
2018-07-01T00:52:19.367Z,0.00
2018-07-01T00:53:19.535Z,0.00
2018-07-01T00:54:19.397Z,0.00
2018-07-01T00:55:19.416Z,0.00
2018-07-01T00:56:19.419Z,0.00
2018-07-01T00:57:19.434Z,0.00
2018-07-01T00:58:19.490Z,0.00
2018-07-01T00:59:19.463Z,0.00
2018-07-01T01:00:19.476Z,0.00
2018-07-01T01:01:19.581Z,0.00
2018-07-01T01:02:19.500Z,0.00
2018-07-01T01:03:19.495Z,0.00
2018-07-01T01:04:19.529Z,0.00
2018-07-01T01:05:19.539Z,0.00
2018-07-01T01:06:19.706Z,0.00
2018-07-01T01:07:19.554Z,0.00
2018-07-01T01:08:19.574Z,0.00
2018-07-01T01:09:19.590Z,0.00
2018-07-01T01:10:19.591Z,0.00
2018-07-01T01:11:19.626Z,0.00
2018-07-01T01:12:19.786Z,0.00
2018-07-01T01:13:19.631Z,0.00
2018-07-01T01:14:19.666Z,0.00
2018-07-01T01:15:19.672Z,0.00
2018-07-01T01:16:19.690Z,0.00
2018-07-01T01:17:19.914Z,0.00
2018-07-01T01:18:19.704Z,0.00
2018-07-01T01:19:19.709Z,0.00
2018-07-01T01:20:19.719Z,0.00
2018-07-01T01:21:19.736Z,0.00
2018-07-01T01:22:19.846Z,0.00
2018-07-01T01:23:19.769Z,0.00
2018-07-01T01:24:19.797Z,0.00
2018-07-01T01:25:19.794Z,0.00
2018-07-01T01:26:19.817Z,0.00
2018-07-01T01:27:19.821Z,0.00
2018-07-01T01:28:20.007Z,0.00
2018-07-01T01:29:19.860Z,0.00
2018-07-01T01:30:19.910Z,0.00
2018-07-01T01:31:19.894Z,0.00
2018-07-01T01:32:19.899Z,0.00
2018-07-01T01:33:20.067Z,0.00
2018-07-01T01:34:19.923Z,0.00
2018-07-01T01:35:19.939Z,0.00
2018-07-01T01:36:19.940Z,0.00
2018-07-01T01:37:19.959Z,0.00
2018-07-01T01:38:20.068Z,0.00
2018-07-01T01:39:19.994Z,0.00
2018-07-01T01:40:19.982Z,0.00
2018-07-01T01:41:20.060Z,0.00
2018-07-01T01:42:20.021Z,0.00
2018-07-01T01:43:20.086Z,0.00
2018-07-01T01:44:20.046Z,0.00
2018-07-01T01:45:20.065Z,0.00
2018-07-01T01:46:20.070Z,0.00
2018-07-01T01:47:20.074Z,0.00
2018-07-01T01:48:20.250Z,0.00
2018-07-01T01:49:20.116Z,0.00
2018-07-01T01:50:20.113Z,0.00
2018-07-01T01:51:20.125Z,0.00
2018-07-01T01:52:20.155Z,0.00
2018-07-01T01:53:20.221Z,0.00
2018-07-01T01:54:20.181Z,0.00
2018-07-01T01:55:20.202Z,0.00
2018-07-01T01:56:20.375Z,0.00
2018-07-01T01:57:20.228Z,0.00
2018-07-01T01:58:20.276Z,0.00
2018-07-01T01:59:20.248Z,0.00
2018-07-01T02:00:20.262Z,0.00
2018-07-01T02:01:20.364Z,0.00
2018-07-01T02:02:20.273Z,0.00
2018-07-01T02:03:20.294Z,0.00
2018-07-01T02:04:20.293Z,0.00
2018-07-01T02:05:20.327Z,0.00
2018-07-01T02:06:20.484Z,0.00
2018-07-01T02:07:20.352Z,0.00
2018-07-01T02:08:20.369Z,0.00
2018-07-01T02:09:20.386Z,0.00
2018-07-01T02:10:20.391Z,0.00
2018-07-01T02:11:20.552Z,0.00
2018-07-01T02:12:20.427Z,0.00
2018-07-01T02:13:20.422Z,0.00
2018-07-01T02:14:20.429Z,0.00
2018-07-01T02:15:20.445Z,0.00
2018-07-01T02:16:20.506Z,0.00
2018-07-01T02:17:20.484Z,0.00
2018-07-01T02:18:20.496Z,0.00
2018-07-01T02:19:20.489Z,0.00
2018-07-01T02:20:20.519Z,0.00
2018-07-01T02:21:20.635Z,0.00
2018-07-01T02:22:20.543Z,0.00
2018-07-01T02:23:20.599Z,0.00
2018-07-01T02:24:20.563Z,0.00
2018-07-01T02:25:20.591Z,0.00
2018-07-01T02:26:20.640Z,0.00
2018-07-01T02:27:20.602Z,0.00
2018-07-01T02:28:20.627Z,0.00
2018-07-01T02:29:20.793Z,0.00
2018-07-01T02:30:20.637Z,0.00
2018-07-01T02:31:20.643Z,0.00
2018-07-01T02:32:20.654Z,0.00
2018-07-01T02:33:20.680Z,0.00
2018-07-01T02:34:20.967Z,0.00
2018-07-01T02:35:20.754Z,0.00
2018-07-01T02:36:20.718Z,0.00
2018-07-01T02:37:20.743Z,0.00
2018-07-01T02:38:20.736Z,0.00
2018-07-01T02:39:20.766Z,0.00
2018-07-01T02:40:20.909Z,0.00
2018-07-01T02:41:20.791Z,0.00
2018-07-01T02:42:20.804Z,0.00
2018-07-01T02:43:20.810Z,0.00
2018-07-01T02:44:20.831Z,0.00
2018-07-01T02:45:20.834Z,0.00
2018-07-01T02:46:21.001Z,0.00
2018-07-01T02:47:20.877Z,0.00
2018-07-01T02:48:20.878Z,0.00
2018-07-01T02:49:20.887Z,0.00
2018-07-01T02:50:20.904Z,0.00
2018-07-01T02:51:21.054Z,0.00
2018-07-01T02:52:20.924Z,0.00
2018-07-01T02:53:20.954Z,0.00
2018-07-01T02:54:20.954Z,0.00
2018-07-01T02:55:20.949Z,0.00
2018-07-01T02:56:21.136Z,0.00
2018-07-01T02:57:20.992Z,0.00
2018-07-01T02:58:20.999Z,0.00
2018-07-01T02:59:21.017Z,0.00
2018-07-01T03:00:21.035Z,0.00
2018-07-01T03:01:21.188Z,0.00
2018-07-01T03:02:21.041Z,0.00
2018-07-01T03:03:21.061Z,0.00
2018-07-01T03:04:21.090Z,0.00
2018-07-01T03:05:21.097Z,0.00
2018-07-01T03:06:21.196Z,0.00
2018-07-01T03:07:21.116Z,0.00
2018-07-01T03:08:21.123Z,0.00
2018-07-01T03:09:21.147Z,0.00
2018-07-01T03:10:21.152Z,0.00
2018-07-01T03:11:21.268Z,0.00
2018-07-01T03:12:21.188Z,0.00
2018-07-01T03:13:21.206Z,0.00
2018-07-01T03:14:21.203Z,0.00
2018-07-01T03:15:21.234Z,0.00
2018-07-01T03:16:21.498Z,0.00
2018-07-01T03:17:21.233Z,0.00
2018-07-01T03:18:21.295Z,0.00
2018-07-01T03:19:21.272Z,0.00
2018-07-01T03:20:21.264Z,0.00
2018-07-01T03:21:21.444Z,0.00
2018-07-01T03:22:21.312Z,0.00
2018-07-01T03:23:21.321Z,0.00
2018-07-01T03:24:21.334Z,0.00
2018-07-01T03:25:21.340Z,0.00
2018-07-01T03:26:21.518Z,0.00
2018-07-01T03:27:21.364Z,0.00
2018-07-01T03:28:21.389Z,0.00
2018-07-01T03:29:21.393Z,0.00
2018-07-01T03:30:21.402Z,0.00
2018-07-01T03:31:21.577Z,0.00
2018-07-01T03:32:21.469Z,0.00
2018-07-01T03:33:21.455Z,0.00
2018-07-01T03:34:21.501Z,0.00
2018-07-01T03:35:21.451Z,0.00
2018-07-01T03:36:21.580Z,0.00
2018-07-01T03:37:21.492Z,0.00
2018-07-01T03:38:21.510Z,0.00
2018-07-01T03:39:21.522Z,0.00
2018-07-01T03:40:21.528Z,0.00
2018-07-01T03:41:21.702Z,0.00
2018-07-01T03:42:21.554Z,0.00
2018-07-01T03:43:21.554Z,0.00
2018-07-01T03:44:21.594Z,0.00
2018-07-01T03:45:21.612Z,0.00
2018-07-01T03:46:21.716Z,0.00
2018-07-01T03:47:21.628Z,0.00
2018-07-01T03:48:21.621Z,0.00
2018-07-01T03:49:21.635Z,0.00
2018-07-01T03:50:21.644Z,0.00
2018-07-01T03:51:21.657Z,0.00
2018-07-01T03:52:21.785Z,0.00
2018-07-01T03:53:21.704Z,0.00
2018-07-01T03:54:21.720Z,0.00
2018-07-01T03:55:21.711Z,0.00
2018-07-01T03:56:21.724Z,0.00
2018-07-01T03:57:21.746Z,0.00
2018-07-01T03:58:21.898Z,0.00
2018-07-01T03:59:21.777Z,0.00
2018-07-01T04:00:21.808Z,0.00
2018-07-01T04:01:21.799Z,0.00
2018-07-01T04:02:21.837Z,0.00
2018-07-01T04:03:21.987Z,0.00
2018-07-01T04:04:21.840Z,0.00
2018-07-01T04:05:21.853Z,0.00
2018-07-01T04:06:21.905Z,0.00
2018-07-01T04:07:21.882Z,0.00
2018-07-01T04:08:21.925Z,0.00
2018-07-01T04:09:21.909Z,0.00
2018-07-01T04:10:21.910Z,0.00
2018-07-01T04:11:22.079Z,0.00
2018-07-01T04:12:21.923Z,0.00
2018-07-01T04:13:21.947Z,0.00
2018-07-01T04:14:21.967Z,0.00
2018-07-01T04:15:21.971Z,0.00
2018-07-01T04:16:22.121Z,0.00
2018-07-01T04:17:22.007Z,0.00
2018-07-01T04:18:22.014Z,0.00
2018-07-01T04:19:22.034Z,0.00
2018-07-01T04:20:22.057Z,0.00
2018-07-01T04:21:22.134Z,0.00
2018-07-01T04:22:22.062Z,0.00
2018-07-01T04:23:22.059Z,0.00
2018-07-01T04:24:22.078Z,0.00
2018-07-01T04:25:22.098Z,0.00
2018-07-01T04:26:22.108Z,0.00
2018-07-01T04:27:22.174Z,0.00
2018-07-01T04:28:22.130Z,0.00
2018-07-01T04:29:22.163Z,0.00
2018-07-01T04:30:22.267Z,0.00
2018-07-01T04:31:22.179Z,0.00
2018-07-01T04:32:22.201Z,0.00
2018-07-01T04:33:22.210Z,0.00
2018-07-01T04:34:22.234Z,0.00
2018-07-01T04:35:22.381Z,0.00
2018-07-01T04:36:22.229Z,0.00
2018-07-01T04:37:22.260Z,0.00
2018-07-01T04:38:22.258Z,0.00
2018-07-01T04:39:22.283Z,0.00
2018-07-01T04:40:22.377Z,0.00
2018-07-01T04:41:22.299Z,0.00
2018-07-01T04:42:22.312Z,0.00
2018-07-01T04:43:22.317Z,0.00
2018-07-01T04:44:22.349Z,0.00
2018-07-01T04:45:22.498Z,0.00
2018-07-01T04:46:22.357Z,0.00
2018-07-01T04:47:22.376Z,0.00
2018-07-01T04:48:22.405Z,0.00
2018-07-01T04:49:22.420Z,0.00
2018-07-01T04:50:22.578Z,0.00
2018-07-01T04:51:22.420Z,0.00
2018-07-01T04:52:22.435Z,0.00
2018-07-01T04:53:22.457Z,0.00
2018-07-01T04:54:22.479Z,0.00
2018-07-01T04:55:22.772Z,0.00
2018-07-01T04:56:22.544Z,0.00
2018-07-01T04:57:22.516Z,0.00
2018-07-01T04:58:22.571Z,0.00
2018-07-01T04:59:22.521Z,0.00
2018-07-01T05:00:22.747Z,0.00
2018-07-01T05:01:22.570Z,0.00
2018-07-01T05:02:22.578Z,0.00
2018-07-01T05:03:22.588Z,0.00
2018-07-01T05:04:22.588Z,0.00
2018-07-01T05:05:22.773Z,0.00
2018-07-01T05:06:22.613Z,0.00
2018-07-01T05:07:22.652Z,0.00
2018-07-01T05:08:22.657Z,0.00
2018-07-01T05:09:22.672Z,0.00
2018-07-01T05:10:22.778Z,0.00
2018-07-01T05:11:22.680Z,0.00
2018-07-01T05:12:22.712Z,0.00
2018-07-01T05:13:22.720Z,0.00
2018-07-01T05:14:22.744Z,0.00
2018-07-01T05:15:22.947Z,0.00
2018-07-01T05:16:22.765Z,0.00
2018-07-01T05:17:22.777Z,0.00
2018-07-01T05:18:22.768Z,0.00
2018-07-01T05:19:22.785Z,0.00
2018-07-01T05:20:22.957Z,0.00
2018-07-01T05:21:22.822Z,0.00
2018-07-01T05:22:22.842Z,0.00
2018-07-01T05:23:22.847Z,0.00
2018-07-01T05:24:22.846Z,0.00
2018-07-01T05:25:22.979Z,0.00
2018-07-01T05:26:22.871Z,0.00
2018-07-01T05:27:22.900Z,0.00
2018-07-01T05:28:22.951Z,0.00
2018-07-01T05:29:22.922Z,0.00
2018-07-01T05:30:23.035Z,0.00
2018-07-01T05:31:22.960Z,0.00
2018-07-01T05:32:22.957Z,0.00
2018-07-01T05:33:22.987Z,0.00
2018-07-01T05:34:23.041Z,0.00
2018-07-01T05:35:23.158Z,0.00
2018-07-01T05:36:23.025Z,0.00
2018-07-01T05:37:23.019Z,0.00
2018-07-01T05:38:23.061Z,0.00
2018-07-01T05:39:23.061Z,0.00
2018-07-01T05:40:23.205Z,0.00
2018-07-01T05:41:23.081Z,0.00
2018-07-01T05:42:23.081Z,0.00
2018-07-01T05:43:23.092Z,0.00
2018-07-01T05:44:23.160Z,0.00
2018-07-01T05:45:23.136Z,0.00
2018-07-01T05:46:23.231Z,0.00
2018-07-01T05:47:23.163Z,0.00
2018-07-01T05:48:23.185Z,0.00
2018-07-01T05:49:23.207Z,0.00
2018-07-01T05:50:23.209Z,0.00
2018-07-01T05:51:23.367Z,0.00
2018-07-01T05:52:23.230Z,0.00
2018-07-01T05:53:23.241Z,0.00
2018-07-01T05:54:23.253Z,0.00
2018-07-01T05:55:23.262Z,0.00
2018-07-01T05:56:23.438Z,0.00
2018-07-01T05:57:23.282Z,0.00
2018-07-01T05:58:23.318Z,0.00
2018-07-01T05:59:23.327Z,0.00
2018-07-01T06:00:23.325Z,0.00
2018-07-01T06:01:23.496Z,0.00
2018-07-01T06:02:23.347Z,0.00
2018-07-01T06:03:23.352Z,0.00
2018-07-01T06:04:23.371Z,0.00
2018-07-01T06:05:23.396Z,0.00
2018-07-01T06:06:23.542Z,0.00
2018-07-01T06:07:23.420Z,0.00
2018-07-01T06:08:23.476Z,0.00
2018-07-01T06:09:23.427Z,0.00
2018-07-01T06:10:23.502Z,0.00
2018-07-01T06:11:23.632Z,0.00
2018-07-01T06:12:23.527Z,0.00
2018-07-01T06:13:23.535Z,0.00
2018-07-01T06:14:23.548Z,0.00
2018-07-01T06:15:23.537Z,0.00
2018-07-01T06:16:23.701Z,0.00
2018-07-01T06:17:23.533Z,0.00
2018-07-01T06:18:23.555Z,0.00
2018-07-01T06:19:23.570Z,0.00
2018-07-01T06:20:23.593Z,0.00
2018-07-01T06:21:23.752Z,0.00
2018-07-01T06:22:23.609Z,0.00
2018-07-01T06:23:23.625Z,0.00
2018-07-01T06:24:23.676Z,0.00
2018-07-01T06:25:23.653Z,0.00
2018-07-01T06:26:23.825Z,0.00
2018-07-01T06:27:23.716Z,0.00
2018-07-01T06:28:23.733Z,0.00
2018-07-01T06:29:23.686Z,0.00
2018-07-01T06:30:23.767Z,0.00
2018-07-01T06:31:23.884Z,0.00
2018-07-01T06:32:23.725Z,0.00
2018-07-01T06:33:23.756Z,0.00
2018-07-01T06:34:23.767Z,0.00
2018-07-01T06:35:23.779Z,0.00
2018-07-01T06:36:23.803Z,0.00
2018-07-01T06:37:23.958Z,0.00
2018-07-01T06:38:23.820Z,0.00
2018-07-01T06:39:23.828Z,0.00
2018-07-01T06:40:23.855Z,0.00
2018-07-01T06:41:23.868Z,0.00
2018-07-01T06:42:23.887Z,0.00
2018-07-01T06:43:24.039Z,0.00
2018-07-01T06:44:23.886Z,0.00
2018-07-01T06:45:23.918Z,0.00
2018-07-01T06:46:23.909Z,0.00
2018-07-01T06:47:23.920Z,0.00
2018-07-01T06:48:24.104Z,0.00
2018-07-01T06:49:23.980Z,0.00
2018-07-01T06:50:23.972Z,0.00
2018-07-01T06:51:23.997Z,0.00
2018-07-01T06:52:24.004Z,0.00
2018-07-01T06:53:24.099Z,0.00
2018-07-01T06:54:24.017Z,0.00
2018-07-01T06:55:24.042Z,0.00
2018-07-01T06:56:24.088Z,0.00
2018-07-01T06:57:24.057Z,0.00
2018-07-01T06:58:24.217Z,0.00
2018-07-01T06:59:24.089Z,0.00
2018-07-01T07:00:24.103Z,0.00
2018-07-01T07:01:24.132Z,0.00
2018-07-01T07:02:24.178Z,0.00
2018-07-01T07:03:24.232Z,0.00
2018-07-01T07:04:24.140Z,0.00
2018-07-01T07:05:24.167Z,0.00
2018-07-01T07:06:24.195Z,0.00
2018-07-01T07:07:24.190Z,0.00
2018-07-01T07:08:24.264Z,0.00
2018-07-01T07:09:24.208Z,0.00
2018-07-01T07:10:24.223Z,0.00
2018-07-01T07:11:24.254Z,0.00
2018-07-01T07:12:24.416Z,0.00
2018-07-01T07:13:24.274Z,0.00
2018-07-01T07:14:24.294Z,0.00
2018-07-01T07:15:24.305Z,0.00
2018-07-01T07:16:24.369Z,0.00
2018-07-01T07:17:24.493Z,0.00
2018-07-01T07:18:24.321Z,0.00
2018-07-01T07:19:24.358Z,0.00
2018-07-01T07:20:24.358Z,0.00
2018-07-01T07:21:24.360Z,0.00
2018-07-01T07:22:24.425Z,0.00
2018-07-01T07:23:24.405Z,0.00
2018-07-01T07:24:24.577Z,0.00
2018-07-01T07:25:24.424Z,0.00
2018-07-01T07:26:24.432Z,0.00
2018-07-01T07:27:24.437Z,0.00
2018-07-01T07:28:24.461Z,0.00
2018-07-01T07:29:24.622Z,0.00
2018-07-01T07:30:24.487Z,0.00
2018-07-01T07:31:24.492Z,0.00
2018-07-01T07:32:24.517Z,0.00
2018-07-01T07:33:24.579Z,0.00
2018-07-01T07:34:24.751Z,0.00
2018-07-01T07:35:24.597Z,0.00
2018-07-01T07:36:24.571Z,0.00
2018-07-01T07:37:24.572Z,0.00
2018-07-01T07:38:24.583Z,0.00
2018-07-01T07:39:24.740Z,0.00
2018-07-01T07:40:24.605Z,0.00
2018-07-01T07:41:24.619Z,0.00
2018-07-01T07:42:24.630Z,0.00
2018-07-01T07:43:24.652Z,0.00
2018-07-01T07:44:24.814Z,0.00
2018-07-01T07:45:24.691Z,0.00
2018-07-01T07:46:24.710Z,0.00
2018-07-01T07:47:24.702Z,0.00
2018-07-01T07:48:24.714Z,0.00
2018-07-01T07:49:24.715Z,0.00
2018-07-01T07:50:24.902Z,0.00
2018-07-01T07:51:24.763Z,0.00
2018-07-01T07:52:24.755Z,0.00
2018-07-01T07:53:24.772Z,0.00
2018-07-01T07:54:24.781Z,0.00
2018-07-01T07:55:24.946Z,0.00
2018-07-01T07:56:24.809Z,0.00
2018-07-01T07:57:24.838Z,0.00
2018-07-01T07:58:24.838Z,0.00
2018-07-01T07:59:24.844Z,0.00
2018-07-01T08:00:24.865Z,0.00
2018-07-01T08:01:25.043Z,0.00
2018-07-01T08:02:24.892Z,0.00
2018-07-01T08:03:24.924Z,0.00
2018-07-01T08:04:24.916Z,0.00
2018-07-01T08:05:24.935Z,0.00
2018-07-01T08:06:25.095Z,0.00
2018-07-01T08:07:25.067Z,0.00
2018-07-01T08:08:24.963Z,0.00
2018-07-01T08:09:25.026Z,0.00
2018-07-01T08:10:24.985Z,0.00
2018-07-01T08:11:25.060Z,0.00
2018-07-01T08:12:25.017Z,0.00
2018-07-01T08:13:25.179Z,0.00
2018-07-01T08:14:25.044Z,0.00
2018-07-01T08:15:25.079Z,0.00
2018-07-01T08:16:25.076Z,0.00
2018-07-01T08:17:25.082Z,0.00
2018-07-01T08:18:25.233Z,0.00
2018-07-01T08:19:25.114Z,0.00
2018-07-01T08:20:25.130Z,0.00
2018-07-01T08:21:25.138Z,0.00
2018-07-01T08:22:25.146Z,0.00
2018-07-01T08:23:25.255Z,0.00
2018-07-01T08:24:25.181Z,0.00
2018-07-01T08:25:25.172Z,0.00
2018-07-01T08:26:25.206Z,0.00
2018-07-01T08:27:25.254Z,0.00
2018-07-01T08:28:25.353Z,0.00
2018-07-01T08:29:25.254Z,0.00
2018-07-01T08:30:25.261Z,0.00
2018-07-01T08:31:25.254Z,0.00
2018-07-01T08:32:25.276Z,0.00
2018-07-01T08:33:25.436Z,0.00
2018-07-01T08:34:25.296Z,0.00
2018-07-01T08:35:25.305Z,0.00
2018-07-01T08:36:25.329Z,0.00
2018-07-01T08:37:25.344Z,0.00
2018-07-01T08:38:25.497Z,0.00
2018-07-01T08:39:25.369Z,0.00
2018-07-01T08:40:25.370Z,0.00
2018-07-01T08:41:25.382Z,0.00
2018-07-01T08:42:25.400Z,0.00
2018-07-01T08:43:25.563Z,0.00
2018-07-01T08:44:25.420Z,0.00
2018-07-01T08:45:25.417Z,0.00
2018-07-01T08:46:25.446Z,0.00
2018-07-01T08:47:25.468Z,0.00
2018-07-01T08:48:25.575Z,0.00
2018-07-01T08:49:25.493Z,0.00
2018-07-01T08:50:25.506Z,0.00
2018-07-01T08:51:25.513Z,0.00
2018-07-01T08:52:25.565Z,0.00
2018-07-01T08:53:25.685Z,0.00
2018-07-01T08:54:25.541Z,0.00
2018-07-01T08:55:25.563Z,0.00
2018-07-01T08:56:25.568Z,0.00
2018-07-01T08:57:25.588Z,0.00
2018-07-01T08:58:25.742Z,0.00
2018-07-01T08:59:25.600Z,0.00
2018-07-01T09:00:25.607Z,0.00
2018-07-01T09:01:25.626Z,0.00
2018-07-01T09:02:25.633Z,0.00
2018-07-01T09:03:25.806Z,0.00
2018-07-01T09:04:25.665Z,0.00
2018-07-01T09:05:25.695Z,0.00
2018-07-01T09:06:25.739Z,0.00
2018-07-01T09:07:25.724Z,0.00
2018-07-01T09:08:25.734Z,0.00
2018-07-01T09:09:25.887Z,0.00
2018-07-01T09:10:25.756Z,0.00
2018-07-01T09:11:25.754Z,0.00
2018-07-01T09:12:25.777Z,0.00
2018-07-01T09:13:25.792Z,0.00
2018-07-01T09:14:25.958Z,0.00
2018-07-01T09:15:25.819Z,0.00
2018-07-01T09:16:25.827Z,0.00
2018-07-01T09:17:25.852Z,0.00
2018-07-01T09:18:25.863Z,0.00
2018-07-01T09:19:26.020Z,0.00
2018-07-01T09:20:25.858Z,0.00
2018-07-01T09:21:25.868Z,0.00
2018-07-01T09:22:25.894Z,0.00
2018-07-01T09:23:25.947Z,0.00
2018-07-01T09:24:25.919Z,0.00
2018-07-01T09:25:26.098Z,0.00
2018-07-01T09:26:25.949Z,0.00
2018-07-01T09:27:25.967Z,0.00
2018-07-01T09:28:25.981Z,0.00
2018-07-01T09:29:26.029Z,0.00
2018-07-01T09:30:25.996Z,0.00
2018-07-01T09:31:26.110Z,0.00
2018-07-01T09:32:26.028Z,0.00
2018-07-01T09:33:26.044Z,0.00
2018-07-01T09:34:26.120Z,0.00
2018-07-01T09:35:26.067Z,0.00
2018-07-01T09:36:26.177Z,0.00
2018-07-01T09:37:26.075Z,0.00
2018-07-01T09:38:26.102Z,0.00
2018-07-01T09:39:26.100Z,0.00
2018-07-01T09:40:26.161Z,0.00
2018-07-01T09:41:26.243Z,0.00
2018-07-01T09:42:26.191Z,0.00
2018-07-01T09:43:26.171Z,5.63
2018-07-01T09:44:26.182Z,5.63
2018-07-01T09:45:26.177Z,5.63
2018-07-01T09:46:26.202Z,5.63
2018-07-01T09:47:26.305Z,11.25
2018-07-01T09:48:26.221Z,11.25
2018-07-01T09:49:26.220Z,11.25
2018-07-01T09:50:26.330Z,11.25
2018-07-01T09:51:26.245Z,16.88
2018-07-01T09:52:26.377Z,16.88
2018-07-01T09:53:26.295Z,22.50
2018-07-01T09:54:26.301Z,22.50
2018-07-01T09:55:26.320Z,22.50
2018-07-01T09:56:26.327Z,28.13
2018-07-01T09:57:26.441Z,28.13
2018-07-01T09:58:26.363Z,33.75
2018-07-01T09:59:26.340Z,33.75
2018-07-01T10:00:26.360Z,39.38
2018-07-01T10:01:26.370Z,39.38
2018-07-01T10:02:26.485Z,45.00
2018-07-01T10:03:26.419Z,45.00
2018-07-01T10:04:26.406Z,50.63
2018-07-01T10:05:26.435Z,56.25
2018-07-01T10:06:26.456Z,56.25
2018-07-01T10:07:26.561Z,61.88
2018-07-01T10:08:26.467Z,61.88
2018-07-01T10:09:26.473Z,67.50
2018-07-01T10:10:26.483Z,67.50
2018-07-01T10:11:26.497Z,73.13
2018-07-01T10:12:26.661Z,73.13
2018-07-01T10:13:26.515Z,78.75
2018-07-01T10:14:26.533Z,84.38
2018-07-01T10:15:26.555Z,84.38
2018-07-01T10:16:26.613Z,90.00
2018-07-01T10:17:26.633Z,95.63
2018-07-01T10:18:26.596Z,95.63
2018-07-01T10:19:26.604Z,101.25
2018-07-01T10:20:26.627Z,101.25
2018-07-01T10:21:26.625Z,106.88
2018-07-01T10:22:26.798Z,112.50
2018-07-01T10:23:26.650Z,118.13
2018-07-01T10:24:26.663Z,123.75
2018-07-01T10:25:26.684Z,123.75
2018-07-01T10:26:26.707Z,129.38
2018-07-01T10:27:26.815Z,129.38
2018-07-01T10:28:26.726Z,135.00
2018-07-01T10:29:26.735Z,135.00
2018-07-01T10:30:26.741Z,135.00
2018-07-01T10:31:26.772Z,140.63
2018-07-01T10:32:26.790Z,146.25
2018-07-01T10:33:26.877Z,151.88
2018-07-01T10:34:26.782Z,163.13
2018-07-01T10:35:26.815Z,168.75
2018-07-01T10:36:26.861Z,168.75
2018-07-01T10:37:26.839Z,174.38
2018-07-01T10:38:26.948Z,174.38
2018-07-01T10:39:26.864Z,174.38
2018-07-01T10:40:26.867Z,180.00
2018-07-01T10:41:26.877Z,180.00
2018-07-01T10:42:26.900Z,185.63
2018-07-01T10:43:27.010Z,191.25
2018-07-01T10:44:26.901Z,191.25
2018-07-01T10:45:26.927Z,196.88
2018-07-01T10:46:26.951Z,202.50
2018-07-01T10:47:26.953Z,213.75
2018-07-01T10:48:26.953Z,225.00
2018-07-01T10:49:27.189Z,236.25
2018-07-01T10:50:26.993Z,241.88
2018-07-01T10:51:27.121Z,247.50
2018-07-01T10:52:27.034Z,253.13
2018-07-01T10:53:27.018Z,253.13
2018-07-01T10:54:27.148Z,247.50
2018-07-01T10:55:27.050Z,241.88
2018-07-01T10:56:27.076Z,241.88
2018-07-01T10:57:27.076Z,230.63
2018-07-01T10:58:27.127Z,236.25
2018-07-01T10:59:27.254Z,247.50
2018-07-01T11:00:27.111Z,264.38
2018-07-01T11:01:27.124Z,286.88
2018-07-01T11:02:27.204Z,303.75
2018-07-01T11:03:27.183Z,303.75
2018-07-01T11:04:27.268Z,303.75
2018-07-01T11:05:27.182Z,303.75
2018-07-01T11:06:27.212Z,298.13
2018-07-01T11:07:27.224Z,303.75
2018-07-01T11:08:27.239Z,303.75
2018-07-01T11:09:27.403Z,309.38
2018-07-01T11:10:27.271Z,315.00
2018-07-01T11:11:27.276Z,320.63
2018-07-01T11:12:27.299Z,320.63
2018-07-01T11:13:27.287Z,331.88
2018-07-01T11:14:27.431Z,343.13
2018-07-01T11:15:27.375Z,365.63
2018-07-01T11:16:27.345Z,371.25
2018-07-01T11:17:27.364Z,376.88
2018-07-01T11:18:27.384Z,371.25
2018-07-01T11:19:27.681Z,371.25
2018-07-01T11:20:27.536Z,365.63
2018-07-01T11:21:27.412Z,371.25
2018-07-01T11:22:27.420Z,382.50
2018-07-01T11:23:27.450Z,399.38
2018-07-01T11:24:27.448Z,427.50
2018-07-01T11:25:27.634Z,427.50
2018-07-01T11:26:27.510Z,421.88
2018-07-01T11:27:27.632Z,405.00
2018-07-01T11:28:27.524Z,399.38
2018-07-01T11:29:27.531Z,416.25
2018-07-01T11:30:27.685Z,416.25
2018-07-01T11:31:27.566Z,433.13
2018-07-01T11:32:27.584Z,450.00
2018-07-01T11:33:27.590Z,472.50
2018-07-01T11:34:27.607Z,495.00
2018-07-01T11:35:27.716Z,517.50
2018-07-01T11:36:27.644Z,517.50
2018-07-01T11:37:27.665Z,478.13
2018-07-01T11:38:27.681Z,461.25
2018-07-01T11:39:27.701Z,461.25
2018-07-01T11:40:27.810Z,450.00
2018-07-01T11:41:27.712Z,433.13
2018-07-01T11:42:27.773Z,444.38
2018-07-01T11:43:27.743Z,511.88
2018-07-01T11:44:27.759Z,551.25
2018-07-01T11:45:27.786Z,562.50
2018-07-01T11:46:27.890Z,540.00
2018-07-01T11:47:27.796Z,545.63
2018-07-01T11:48:27.811Z,573.75
2018-07-01T11:49:27.889Z,568.13
2018-07-01T11:50:27.904Z,568.13
2018-07-01T11:51:28.035Z,556.88
2018-07-01T11:52:27.936Z,568.13
2018-07-01T11:53:27.895Z,562.50
2018-07-01T11:54:27.923Z,472.50
2018-07-01T11:55:27.927Z,511.88
2018-07-01T11:56:28.117Z,540.00
2018-07-01T11:57:27.978Z,562.50
2018-07-01T11:58:27.979Z,562.50
2018-07-01T11:59:28.014Z,568.13
2018-07-01T12:00:28.011Z,556.88
2018-07-01T12:01:28.084Z,540.00
2018-07-01T12:02:28.219Z,506.25
2018-07-01T12:03:28.062Z,495.00
2018-07-01T12:04:28.095Z,461.25
2018-07-01T12:05:28.128Z,472.50
2018-07-01T12:06:28.131Z,472.50
2018-07-01T12:07:28.251Z,444.38
2018-07-01T12:09:28.193Z,461.25
2018-07-01T12:10:28.216Z,466.88
2018-07-01T12:11:28.207Z,444.38
2018-07-01T12:12:28.290Z,438.75
2018-07-01T12:13:28.257Z,540.00
2018-07-01T12:14:28.288Z,551.25
2018-07-01T12:15:28.281Z,551.25
2018-07-01T12:16:28.319Z,511.88
2018-07-01T12:17:28.433Z,450.00
2018-07-01T12:18:28.334Z,450.00
2018-07-01T12:19:28.377Z,489.38
2018-07-01T12:20:28.405Z,511.88
2018-07-01T12:21:28.415Z,540.00
2018-07-01T12:22:28.539Z,528.75
2018-07-01T12:23:28.590Z,495.00
2018-07-01T12:24:28.465Z,472.50
2018-07-01T12:25:28.477Z,450.00
2018-07-01T12:26:28.486Z,405.00
2018-07-01T12:27:28.548Z,399.38
2018-07-01T12:28:28.523Z,405.00
2018-07-01T12:29:28.654Z,562.50
2018-07-01T12:30:28.568Z,523.13
2018-07-01T12:31:28.596Z,534.38
2018-07-01T12:32:28.596Z,523.13
2018-07-01T12:33:28.620Z,523.13
2018-07-01T12:34:28.651Z,466.88
2018-07-01T12:35:28.767Z,483.75
2018-07-01T12:36:28.667Z,444.38
2018-07-01T12:37:28.705Z,483.75
2018-07-01T12:38:28.725Z,500.63
2018-07-01T12:39:28.718Z,511.88
2018-07-01T12:40:28.834Z,607.50
2018-07-01T12:41:28.768Z,540.00
2018-07-01T12:42:28.879Z,444.38
2018-07-01T12:43:28.801Z,444.38
2018-07-01T12:44:28.827Z,410.63
2018-07-01T12:45:28.924Z,438.75
2018-07-01T12:46:28.869Z,405.00
2018-07-01T12:47:28.860Z,399.38
2018-07-01T12:48:28.895Z,405.00
2018-07-01T12:49:28.917Z,399.38
2018-07-01T12:50:29.002Z,399.38
2018-07-01T12:51:28.990Z,444.38
2018-07-01T12:52:28.951Z,483.75
2018-07-01T12:53:29.122Z,478.13
2018-07-01T12:54:28.991Z,483.75
2018-07-01T12:55:29.005Z,483.75
2018-07-01T12:56:29.031Z,416.25
2018-07-01T12:57:29.100Z,410.63
2018-07-01T12:58:29.168Z,405.00
2018-07-01T12:59:29.101Z,399.38
2018-07-01T13:00:29.098Z,399.38
2018-07-01T13:01:29.110Z,399.38
2018-07-01T13:02:29.173Z,399.38
2018-07-01T13:03:29.227Z,399.38
2018-07-01T13:04:29.183Z,399.38
2018-07-01T13:05:29.199Z,399.38
2018-07-01T13:06:29.303Z,399.38
2018-07-01T13:07:29.228Z,405.00